Time;durP1;ratioP1;P1;durP2;ratioP2;P2;SDS_P1;SDS_P2;PMS_P1;PMS_P2;Temp;Humidity;BMP_temperature;BMP_pressure;BME280_temperature;BME280_humidity;BME280_pressure;Samples;Min_cycle;Max_cycle;Signal;HPM_P1;HPM_P2
2022/07/26 00:01:23;;;;;;;11.55;3.25;;;40.30;41.20;;;;;;4998363;28;20072;-62
2022/07/26 00:03:50;;;;;;;14.77;2.97;;;40.40;40.80;;;;;;5016368;28;20098;-63
2022/07/26 00:06:17;;;;;;;8.15;2.35;;;40.20;40.90;;;;;;4997277;28;20092;-62
2022/07/26 00:08:43;;;;;;;10.70;2.90;;;40.00;40.70;;;;;;4995580;28;20083;-63
2022/07/26 00:11:10;;;;;;;12.30;2.58;;;40.10;41.40;;;;;;5013916;28;20072;-62
2022/07/26 00:13:36;;;;;;;15.35;3.00;;;40.20;42.70;;;;;;4982175;28;20078;-62
2022/07/26 00:16:03;;;;;;;11.98;2.80;;;40.20;40.90;;;;;;4996116;28;20074;-63
2022/07/26 00:18:29;;;;;;;11.95;3.28;;;40.00;40.90;;;;;;4996715;28;20080;-63
2022/07/26 00:20:56;;;;;;;21.30;2.70;;;40.00;41.00;;;;;;4998273;28;20070;-68
2022/07/26 00:23:22;;;;;;;16.80;3.22;;;39.80;40.90;;;;;;4993605;28;20086;-62
2022/07/26 00:25:48;;;;;;;12.43;3.05;;;39.80;41.50;;;;;;4995815;28;20722;-64
2022/07/26 00:28:15;;;;;;;12.30;3.47;;;39.80;41.70;;;;;;4995862;28;20073;-62
2022/07/26 00:30:42;;;;;;;9.88;2.58;;;39.80;41.90;;;;;;5005173;28;20092;-63
2022/07/26 00:33:08;;;;;;;10.82;2.95;;;39.70;42.40;;;;;;5009439;28;20076;-62
2022/07/26 00:35:34;;;;;;;15.20;3.30;;;39.70;42.90;;;;;;5018262;28;20092;-63
2022/07/26 00:38:01;;;;;;;21.00;3.78;;;39.60;42.30;;;;;;5013220;28;20149;-61
2022/07/26 00:40:27;;;;;;;19.33;3.58;;;39.50;41.40;;;;;;4993780;28;20077;-60
2022/07/26 00:42:53;;;;;;;15.85;3.25;;;39.40;41.60;;;;;;4995279;28;20098;-61
2022/07/26 00:45:20;;;;;;;12.93;3.13;;;39.30;41.20;;;;;;5013452;28;20098;-62
2022/07/26 00:47:46;;;;;;;18.77;3.40;;;39.30;40.60;;;;;;5023161;28;20074;-61
2022/07/26 00:50:15;;;;;;;14.52;2.63;;;39.20;39.60;;;;;;5012721;28;20087;-62
2022/07/26 00:52:44;;;;;;;16.90;3.45;;;39.20;39.30;;;;;;5004373;28;20082;-61
2022/07/26 00:55:11;;;;;;;12.57;2.50;;;39.20;37.10;;;;;;5013928;28;20516;-60
2022/07/26 00:57:38;;;;;;;16.40;3.10;;;39.20;39.20;;;;;;5017593;28;20530;-62
2022/07/26 01:00:09;;;;;;;15.38;3.20;;;39.20;39.70;;;;;;5012620;28;20074;-64
2022/07/26 01:02:35;;;;;;;18.98;3.28;;;39.00;39.30;;;;;;5012608;28;20074;-61
2022/07/26 01:05:02;;;;;;;16.42;2.97;;;38.90;39.00;;;;;;4994055;28;20551;-62
2022/07/26 01:07:29;;;;;;;18.17;3.17;;;38.90;39.60;;;;;;4983745;28;20143;-62
2022/07/26 01:09:56;;;;;;;15.98;3.20;;;38.80;41.00;;;;;;5021416;28;20081;-62
2022/07/26 01:12:23;;;;;;;15.02;2.90;;;38.80;41.80;;;;;;5010567;28;20474;-62
2022/07/26 01:14:49;;;;;;;15.50;3.20;;;38.80;42.10;;;;;;5003899;28;20113;-63
2022/07/26 01:17:16;;;;;;;12.52;3.47;;;38.70;41.80;;;;;;5021806;28;20556;-63
2022/07/26 01:19:43;;;;;;;15.45;3.47;;;38.60;41.80;;;;;;5019225;28;20183;-62
2022/07/26 01:22:09;;;;;;;19.33;3.13;;;38.60;41.30;;;;;;5023255;28;20081;-61
2022/07/26 01:24:35;;;;;;;10.25;2.17;;;38.60;40.40;;;;;;5021758;28;20153;-63
2022/07/26 01:27:02;;;;;;;11.82;3.25;;;38.50;37.30;;;;;;4983161;28;20116;-63
2022/07/26 01:29:28;;;;;;;8.18;2.53;;;38.30;36.50;;;;;;5015924;28;20085;-64
2022/07/26 01:31:55;;;;;;;13.93;2.70;;;38.30;36.30;;;;;;5022822;28;20552;-63
2022/07/26 01:34:21;;;;;;;13.80;2.50;;;38.30;37.30;;;;;;5014604;28;20488;-63
2022/07/26 01:36:49;;;;;;;9.23;2.63;;;38.30;38.90;;;;;;5007698;28;20136;-64
2022/07/26 01:39:15;;;;;;;9.93;3.50;;;38.20;38.30;;;;;;5009615;28;20077;-62
2022/07/26 01:41:42;;;;;;;13.40;2.90;;;38.10;37.90;;;;;;5016662;28;20074;-62
2022/07/26 01:44:08;;;;;;;16.05;3.10;;;38.20;37.10;;;;;;4997274;28;20070;-62
2022/07/26 01:46:35;;;;;;;13.27;3.08;;;38.10;37.00;;;;;;4995453;28;20097;-64
2022/07/26 01:49:02;;;;;;;16.63;2.88;;;38.10;38.20;;;;;;5014225;28;20070;-66
2022/07/26 01:51:28;;;;;;;13.43;2.42;;;38.00;39.30;;;;;;4996322;28;20068;-67
2022/07/26 01:53:55;;;;;;;11.25;2.60;;;37.90;37.40;;;;;;4996914;28;20082;-67
2022/07/26 01:56:22;;;;;;;15.88;2.50;;;37.80;37.50;;;;;;4992482;28;20462;-64
2022/07/26 01:58:48;;;;;;;11.13;2.00;;;37.80;37.80;;;;;;5013306;28;20077;-63
2022/07/26 02:01:15;;;;;;;10.57;2.45;;;37.70;37.20;;;;;;4995751;28;20590;-64
2022/07/26 02:03:41;;;;;;;17.33;2.83;;;37.60;36.90;;;;;;5021165;28;20082;-63
2022/07/26 02:06:08;;;;;;;13.80;1.92;;;37.60;37.60;;;;;;5012970;28;20109;-62
2022/07/26 02:08:34;;;;;;;12.57;2.22;;;37.50;36.40;;;;;;5003533;28;20096;-63
2022/07/26 02:11:01;;;;;;;10.95;2.45;;;37.40;36.60;;;;;;5008374;28;20071;-65
2022/07/26 02:13:39;;;;;;;13.55;3.08;;;37.40;37.50;;;;;;5013986;28;20074;-63
2022/07/26 02:16:12;;;;;;;13.40;2.65;;;37.30;38.80;;;;;;5009746;28;20116;-63
2022/07/26 02:18:42;;;;;;;14.35;2.55;;;37.10;38.80;;;;;;5018548;28;20170;-65
2022/07/26 02:21:08;;;;;;;11.82;2.70;;;37.10;38.60;;;;;;5002515;28;20086;-64
2022/07/26 02:23:35;;;;;;;12.55;2.60;;;37.10;38.60;;;;;;5024628;28;20205;-62
2022/07/26 02:26:02;;;;;;;11.25;2.65;;;37.00;38.40;;;;;;5025256;28;20626;-65
2022/07/26 02:28:29;;;;;;;13.98;2.28;;;36.90;38.30;;;;;;5024885;28;20086;-64
2022/07/26 02:30:55;;;;;;;17.48;3.60;;;36.90;38.10;;;;;;4989129;28;20129;-66
2022/07/26 02:33:22;;;;;;;12.55;3.05;;;36.80;37.90;;;;;;5006803;28;20078;-65
2022/07/26 02:35:48;;;;;;;13.15;2.97;;;36.80;38.10;;;;;;5007829;28;20089;-64
2022/07/26 02:38:15;;;;;;;74.78;5.20;;;36.70;37.90;;;;;;5006948;28;20082;-63
2022/07/26 02:40:43;;;;;;;23.65;2.80;;;36.60;37.90;;;;;;5006031;28;20748;-65
2022/07/26 02:46:09;;;;;;;96.68;6.88;;;36.60;37.60;;;;;;5113392;27;20927;-68
2022/07/26 02:48:36;;;;;;;11.50;2.53;;;36.60;37.40;;;;;;5084705;28;20075;-66
2022/07/26 02:51:05;;;;;;;11.57;2.60;;;36.50;36.80;;;;;;5085649;28;20099;-68
2022/07/26 02:53:32;;;;;;;14.82;2.50;;;36.50;36.80;;;;;;5084420;28;20586;-66
2022/07/26 02:55:58;;;;;;;8.07;2.60;;;36.40;36.10;;;;;;5082063;28;20077;-67
2022/07/26 02:58:25;;;;;;;29.17;3.35;;;36.40;35.70;;;;;;5083313;28;20242;-64
2022/07/26 03:00:52;;;;;;;22.25;2.88;;;36.30;34.40;;;;;;5082020;28;20075;-64
2022/07/26 03:03:18;;;;;;;9.77;2.55;;;36.30;34.70;;;;;;5083136;28;20061;-66
2022/07/26 03:05:45;;;;;;;17.20;3.08;;;;;;;;;;5081893;28;20112;-65
2022/07/26 03:08:11;;;;;;;18.30;3.28;;;;;;;;;;5083417;28;20028;-65
2022/07/26 03:10:38;;;;;;;10.48;2.33;;;35.80;47.30;;;;;;5084587;28;20063;-65
2022/07/26 03:13:04;;;;;;;17.38;2.60;;;36.10;44.90;;;;;;5082986;28;20039;-67
2022/07/26 03:15:31;;;;;;;46.38;3.75;;;35.20;55.30;;;;;;5066926;28;20024;-66
2022/07/26 03:17:57;;;;;;;9.85;2.47;;;;;;;;;;5083847;28;20072;-66
2022/07/26 03:20:24;;;;;;;8.07;2.95;;;35.70;54.70;;;;;;5083496;28;20040;-64
2022/07/26 03:22:50;;;;;;;11.35;2.80;;;35.80;34.90;;;;;;5064329;28;20028;-66
2022/07/26 03:25:17;;;;;;;13.82;2.80;;;;;;;;;;5082203;28;20082;-64
2022/07/26 03:27:43;;;;;;;15.80;2.70;;;35.90;41.60;;;;;;5080574;28;20429;-66
2022/07/26 03:30:10;;;;;;;18.27;3.10;;;;;;;;;;5084230;28;20094;-63
2022/07/26 03:34:15;;;;;;;24.60;3.22;;;;;;;;;;5093628;27;20459;-63
2022/07/26 03:36:45;;;;;;;16.83;2.97;;;36.30;47.50;;;;;;5064954;28;20090;-65
2022/07/26 03:39:12;;;;;;;16.05;2.83;;;;;;;;;;5064296;28;20088;-64
2022/07/26 03:41:38;;;;;;;19.35;3.15;;;;;;;;;;5064351;28;20068;-64
2022/07/26 03:44:10;;;;;;;15.95;3.08;;;36.20;65.50;;;;;;5063513;28;20043;-65
2022/07/26 03:46:37;;;;;;;18.38;3.20;;;;;;;;;;5066629;28;20021;-63
2022/07/26 03:49:03;;;;;;;18.38;3.08;;;36.20;49.10;;;;;;5064795;28;20063;-65
2022/07/26 03:51:32;;;;;;;13.93;2.95;;;;;;;;;;5066213;28;20047;-63
2022/07/26 03:53:59;;;;;;;14.60;3.47;;;35.80;53.30;;;;;;5068395;28;20040;-61
2022/07/26 03:56:30;;;;;;;21.48;3.40;;;34.90;80.60;;;;;;5064886;28;20038;-63
2022/07/26 03:59:03;;;;;;;20.10;3.88;;;35.20;69.20;;;;;;5065313;28;20056;-64
2022/07/26 04:01:30;;;;;;;18.67;3.53;;;35.30;40.40;;;;;;5066459;28;20520;-65
2022/07/26 04:03:57;;;;;;;27.50;4.55;;;35.10;78.00;;;;;;5065602;28;20490;-63
2022/07/26 04:06:23;;;;;;;25.95;3.97;;;35.20;69.60;;;;;;5064665;28;20082;-66
2022/07/26 04:08:50;;;;;;;19.15;3.83;;;35.10;41.60;;;;;;5065758;28;20025;-63
2022/07/26 04:11:16;;;;;;;26.20;4.25;;;35.20;84.60;;;;;;5064444;28;20585;-64
2022/07/26 04:13:43;;;;;;;28.45;4.32;;;;;;;;;;5047834;28;20546;-64
2022/07/26 04:16:09;;;;;;;24.50;4.32;;;35.40;54.30;;;;;;5064766;28;20032;-64
2022/07/26 04:18:36;;;;;;;27.42;4.30;;;34.80;56.60;;;;;;5065076;28;20364;-67
2022/07/26 04:21:02;;;;;;;28.55;4.15;;;34.60;74.90;;;;;;5063700;28;20069;-67
2022/07/26 04:23:29;;;;;;;24.55;3.97;;;34.10;74.30;;;;;;5063168;28;20020;-63
2022/07/26 04:25:55;;;;;;;28.33;4.53;;;34.90;81.00;;;;;;5064497;28;20084;-62
2022/07/26 04:28:23;;;;;;;33.92;3.88;;;34.80;55.00;;;;;;5064414;28;20467;-63
2022/07/26 04:30:49;;;;;;;31.35;4.53;;;;;;;;;;5065956;28;20076;-63
2022/07/26 04:33:16;;;;;;;22.95;3.53;;;34.50;59.70;;;;;;5064852;28;20379;-63
2022/07/26 04:35:42;;;;;;;28.90;4.20;;;34.60;57.90;;;;;;5063688;28;20032;-63
2022/07/26 04:38:08;;;;;;;32.25;3.53;;;34.30;65.20;;;;;;5063852;28;20025;-63
2022/07/26 04:40:35;;;;;;;25.00;3.38;;;34.70;76.70;;;;;;5064264;28;20069;-64
2022/07/26 04:43:02;;;;;;;22.92;3.90;;;34.60;64.10;;;;;;5060485;28;20625;-62
2022/07/26 04:45:29;;;;;;;19.42;3.90;;;34.50;62.80;;;;;;5048554;28;20043;-63
2022/07/26 04:47:55;;;;;;;26.25;4.22;;;;;;;;;;5052724;28;20062;-64
2022/07/26 04:50:23;;;;;;;27.05;4.05;;;34.30;65.50;;;;;;5049827;28;20104;-63
2022/07/26 04:52:51;;;;;;;24.50;4.07;;;34.40;51.80;;;;;;5050863;28;20079;-62
2022/07/26 04:55:18;;;;;;;14.05;3.53;;;34.70;69.30;;;;;;5049789;28;20065;-65
2022/07/26 04:57:45;;;;;;;18.45;3.70;;;34.30;76.10;;;;;;5048583;28;20045;-65
2022/07/26 05:00:14;;;;;;;22.25;3.92;;;34.00;67.70;;;;;;5048861;28;20044;-63
2022/07/26 05:02:41;;;;;;;16.20;3.55;;;34.30;55.60;;;;;;5049821;28;20412;-62
2022/07/26 05:05:08;;;;;;;13.30;3.80;;;34.40;51.20;;;;;;5050021;28;20095;-64
2022/07/26 05:07:45;;;;;;;19.85;3.33;;;33.40;69.60;;;;;;5049098;28;20163;-63
2022/07/26 05:10:13;;;;;;;14.40;2.88;;;34.30;85.90;;;;;;5050660;28;20025;-62
2022/07/26 05:12:39;;;;;;;15.75;3.17;;;34.30;54.60;;;;;;5031986;28;20445;-61
2022/07/26 05:15:08;;;;;;;15.90;3.13;;;34.20;55.60;;;;;;5051606;28;20146;-62
2022/07/26 05:17:36;;;;;;;24.85;3.55;;;34.20;55.40;;;;;;5050164;28;20080;-63
2022/07/26 05:20:03;;;;;;;17.38;3.28;;;34.00;54.10;;;;;;5015893;28;20473;-62
2022/07/26 05:22:30;;;;;;;20.90;4.18;;;34.00;62.30;;;;;;5048326;28;20093;-62
2022/07/26 05:24:56;;;;;;;20.92;4.32;;;34.30;55.90;;;;;;5050317;28;20105;-63
2022/07/26 05:27:22;;;;;;;19.40;4.10;;;34.00;45.00;;;;;;5049685;28;20183;-63
2022/07/26 05:29:49;;;;;;;20.17;4.32;;;;;;;;;;5048526;28;20028;-62
2022/07/26 05:32:15;;;;;;;33.10;4.68;;;34.20;78.50;;;;;;5050289;28;20922;-64
2022/07/26 05:34:42;;;;;;;23.02;3.97;;;;;;;;;;5049676;28;20022;-62
2022/07/26 05:37:09;;;;;;;23.00;3.60;;;34.20;78.70;;;;;;5049651;28;20041;-63
2022/07/26 05:39:36;;;;;;;30.08;3.67;;;34.10;72.90;;;;;;5033575;28;20021;-62
2022/07/26 05:42:02;;;;;;;16.83;3.60;;;34.20;69.30;;;;;;5048965;28;20053;-63
2022/07/26 05:44:29;;;;;;;19.75;3.70;;;34.10;80.90;;;;;;5047660;28;20178;-63
2022/07/26 05:46:55;;;;;;;13.27;3.65;;;33.50;77.60;;;;;;5048899;28;20032;-63
2022/07/26 05:49:21;;;;;;;22.95;4.15;;;33.90;82.00;;;;;;5048112;28;20033;-64
2022/07/26 05:51:48;;;;;;;13.05;3.33;;;33.80;51.60;;;;;;5047971;28;20083;-63
2022/07/26 05:54:14;;;;;;;19.92;3.53;;;;;;;;;;5049928;28;20121;-62
2022/07/26 05:56:41;;;;;;;14.73;3.08;;;;;;;;;;5046432;28;20539;-61
2022/07/26 05:59:07;;;;;;;14.43;3.10;;;34.20;91.20;;;;;;5048105;28;20029;-63
2022/07/26 06:01:34;;;;;;;12.60;3.33;;;34.20;87.20;;;;;;5030091;28;20021;-63
2022/07/26 06:04:01;;;;;;;15.90;3.42;;;;;;;;;;5047998;28;20036;-63
2022/07/26 06:06:27;;;;;;;14.38;3.40;;;33.80;84.10;;;;;;5047000;28;20028;-62
2022/07/26 06:08:54;;;;;;;14.43;3.42;;;;;;;;;;5049542;28;20038;-63
2022/07/26 06:11:21;;;;;;;18.30;3.05;;;33.60;69.60;;;;;;5048611;28;20028;-64
2022/07/26 06:13:47;;;;;;;17.38;3.75;;;;;;;;;;5048626;28;20071;-63
2022/07/26 06:16:14;;;;;;;14.32;4.00;;;;;;;;;;5053168;28;20029;-63
2022/07/26 06:18:40;;;;;;;24.00;4.32;;;33.20;86.80;;;;;;5048304;28;20046;-64
2022/07/26 06:21:07;;;;;;;21.30;4.53;;;33.40;80.20;;;;;;5048752;28;20029;-63
2022/07/26 06:23:33;;;;;;;16.33;4.63;;;;;;;;;;5048558;28;20479;-64
2022/07/26 06:26:00;;;;;;;16.83;4.38;;;33.50;89.00;;;;;;5048847;28;20078;-64
2022/07/26 06:28:26;;;;;;;16.60;4.40;;;33.60;68.80;;;;;;5050302;28;20478;-63
2022/07/26 06:30:52;;;;;;;18.00;4.47;;;33.40;83.40;;;;;;5049515;28;20055;-64
2022/07/26 06:33:19;;;;;;;19.60;4.47;;;;;;;;;;5047875;28;20037;-63
2022/07/26 06:35:45;;;;;;;18.15;4.20;;;33.10;64.80;;;;;;5047643;28;20025;-63
2022/07/26 06:38:12;;;;;;;25.40;5.10;;;33.20;51.60;;;;;;5048730;28;20025;-63
2022/07/26 06:40:38;;;;;;;21.10;4.85;;;33.80;73.10;;;;;;5048557;28;20117;-64
2022/07/26 06:43:05;;;;;;;18.02;4.07;;;33.20;92.40;;;;;;5048518;28;20055;-62
2022/07/26 06:45:32;;;;;;;21.55;4.88;;;33.20;68.10;;;;;;5048906;28;20021;-64
2022/07/26 06:47:59;;;;;;;20.63;4.30;;;;;;;;;;5047578;28;20074;-63
2022/07/26 06:50:25;;;;;;;16.20;4.47;;;;;;;;;;5046782;28;20032;-63
2022/07/26 06:52:52;;;;;;;32.97;4.80;;;33.00;73.80;;;;;;5046784;28;20549;-64
2022/07/26 06:55:18;;;;;;;19.00;4.40;;;32.90;53.90;;;;;;5046048;28;20051;-65
2022/07/26 06:57:44;;;;;;;21.55;4.55;;;32.90;91.80;;;;;;5048940;28;20109;-63
2022/07/26 07:00:12;;;;;;;22.20;5.03;;;32.90;54.40;;;;;;5047118;28;20045;-63
2022/07/26 07:02:38;;;;;;;12.60;3.97;;;32.80;85.20;;;;;;5046149;28;20100;-64
2022/07/26 07:05:05;;;;;;;19.65;4.68;;;32.70;90.70;;;;;;5042946;28;20215;-64
2022/07/26 07:07:31;;;;;;;17.77;5.00;;;32.70;84.70;;;;;;5046809;28;20076;-64
2022/07/26 07:09:58;;;;;;;18.83;4.63;;;32.80;89.00;;;;;;5031121;28;20083;-64
2022/07/26 07:12:24;;;;;;;12.48;3.42;;;32.70;88.70;;;;;;5047798;28;20066;-64
2022/07/26 07:14:51;;;;;;;17.38;3.95;;;32.70;55.60;;;;;;5046672;28;20433;-63
2022/07/26 07:17:20;;;;;;;15.25;3.83;;;32.70;90.10;;;;;;5048147;28;20044;-63
2022/07/26 07:19:47;;;;;;;12.95;4.22;;;32.60;82.20;;;;;;5048414;28;20409;-65
2022/07/26 07:22:13;;;;;;;18.73;4.60;;;;;;;;;;5046487;28;20399;-66
2022/07/26 07:24:41;;;;;;;16.60;3.80;;;32.50;91.00;;;;;;5048354;28;20095;-64
2022/07/26 07:27:08;;;;;;;19.05;4.05;;;32.80;90.40;;;;;;5048823;28;20111;-66
2022/07/26 07:29:35;;;;;;;17.13;3.50;;;;;;;;;;5055155;28;20566;-64
2022/07/26 07:32:01;;;;;;;10.25;3.03;;;33.20;62.90;;;;;;5030201;28;20140;-63
2022/07/26 07:34:27;;;;;;;17.05;3.28;;;;;;;;;;5049796;28;20104;-64
2022/07/26 07:36:54;;;;;;;12.93;3.42;;;32.30;71.00;;;;;;5046992;28;20025;-65
2022/07/26 07:39:20;;;;;;;16.55;4.15;;;32.50;58.20;;;;;;5046998;28;20025;-64
2022/07/26 07:41:47;;;;;;;11.68;3.22;;;32.10;92.70;;;;;;5046085;28;20068;-64
2022/07/26 07:44:14;;;;;;;14.27;4.00;;;32.50;58.80;;;;;;5046742;28;20172;-65
2022/07/26 07:46:40;;;;;;;21.58;4.07;;;;;;;;;;5047331;28;20082;-65
2022/07/26 07:49:07;;;;;;;21.73;3.97;;;32.20;66.70;;;;;;5046321;28;20083;-65
2022/07/26 07:51:33;;;;;;;13.43;3.70;;;32.60;64.40;;;;;;5046063;28;20052;-65
2022/07/26 07:54:00;;;;;;;14.70;4.38;;;32.20;90.50;;;;;;5046372;28;20387;-64
2022/07/26 07:56:26;;;;;;;20.58;3.97;;;32.30;91.50;;;;;;5047536;28;20142;-65
2022/07/26 07:58:53;;;;;;;17.73;3.92;;;32.20;91.90;;;;;;5048081;28;20047;-64
2022/07/26 08:01:19;;;;;;;12.77;3.58;;;32.00;91.20;;;;;;5047434;28;20079;-63
2022/07/26 08:03:46;;;;;;;19.25;3.85;;;;;;;;;;5044785;28;20083;-66
2022/07/26 08:06:12;;;;;;;14.63;3.60;;;;;;;;;;5046680;28;20137;-64
2022/07/26 08:08:38;;;;;;;19.13;4.45;;;32.00;92.10;;;;;;5047488;28;20082;-64
2022/07/26 08:11:07;;;;;;;17.17;4.18;;;32.00;64.40;;;;;;5047053;28;20054;-65
2022/07/26 08:13:34;;;;;;;21.55;4.20;;;32.00;64.90;;;;;;5045922;28;20041;-64
2022/07/26 08:16:01;;;;;;;13.50;4.20;;;32.40;95.10;;;;;;5044787;28;20075;-66
2022/07/26 08:18:27;;;;;;;15.80;4.47;;;;;;;;;;5046955;28;20139;-65
2022/07/26 08:20:54;;;;;;;24.67;5.78;;;32.00;95.00;;;;;;5033739;28;20784;-64
2022/07/26 08:23:21;;;;;;;20.25;5.28;;;31.80;96.40;;;;;;5033859;28;20054;-63
2022/07/26 08:25:47;;;;;;;20.52;5.03;;;;;;;;;;5049948;28;20066;-64
2022/07/26 08:28:15;;;;;;;23.83;6.13;;;31.60;94.30;;;;;;5050022;28;20060;-64
2022/07/26 08:30:42;;;;;;;13.43;4.93;;;31.80;70.50;;;;;;5060583;28;20410;-64
2022/07/26 08:33:08;;;;;;;19.10;5.28;;;31.60;91.60;;;;;;5048779;28;20124;-64
2022/07/26 08:35:34;;;;;;;16.88;4.72;;;31.60;96.40;;;;;;5050002;28;20516;-64
2022/07/26 08:38:01;;;;;;;14.48;4.60;;;31.60;97.80;;;;;;5049176;28;20067;-64
2022/07/26 08:40:27;;;;;;;16.48;4.50;;;31.40;95.50;;;;;;5049764;28;20058;-64
2022/07/26 08:42:57;;;;;;;20.63;4.85;;;31.60;75.50;;;;;;5050206;28;20433;-64
2022/07/26 08:45:29;;;;;;;12.70;4.40;;;31.70;77.40;;;;;;5033885;28;20123;-64
2022/07/26 08:47:56;;;;;;;14.80;4.20;;;32.30;84.90;;;;;;5051316;28;20070;-62
2022/07/26 08:50:23;;;;;;;18.02;4.28;;;31.40;99.90;;;;;;5048341;28;20064;-66
2022/07/26 08:52:51;;;;;;;18.85;4.47;;;31.60;99.90;;;;;;5050412;28;20079;-64
2022/07/26 08:55:20;;;;;;;19.55;4.85;;;31.50;99.90;;;;;;5049272;28;21403;-64
2022/07/26 08:57:47;;;;;;;17.08;5.15;;;31.00;99.70;;;;;;5048495;28;20059;-64
2022/07/26 09:00:29;;;;;;;18.52;4.15;;;31.30;82.60;;;;;;5047972;28;20097;-64
2022/07/26 09:02:58;;;;;;;17.75;4.57;;;31.30;99.90;;;;;;5048104;28;20064;-65
2022/07/26 09:05:36;;;;;;;20.10;4.93;;;31.30;83.60;;;;;;5048975;28;20053;-65
2022/07/26 09:08:25;;;;;;;17.10;4.13;;;31.20;83.50;;;;;;5049072;28;20058;-64
2022/07/26 09:10:52;;;;;;;18.60;4.00;;;31.10;99.90;;;;;;5047874;28;20066;-68
2022/07/26 09:13:19;;;;;;;21.58;4.15;;;31.40;98.60;;;;;;5047188;28;20471;-64
2022/07/26 09:15:45;;;;;;;15.15;3.72;;;31.10;83.80;;;;;;5050155;28;20064;-64
2022/07/26 09:18:26;;;;;;;14.95;3.80;;;31.10;83.90;;;;;;5049579;28;20103;-64
2022/07/26 09:20:52;;;;;;;25.48;5.50;;;31.20;99.90;;;;;;5048429;28;20158;-64
2022/07/26 09:23:19;;;;;;;17.98;3.92;;;;;;;;;;5047440;28;20043;-64
2022/07/26 09:25:46;;;;;;;22.33;3.97;;;32.10;89.80;;;;;;5048630;28;20025;-65
2022/07/26 09:28:39;;;;;;;12.18;4.07;;;31.00;89.40;;;;;;5047210;28;20108;-64
2022/07/26 09:31:05;;;;;;;15.50;4.15;;;;;;;;;;5053495;28;20033;-65
2022/07/26 09:33:46;;;;;;;22.48;4.50;;;31.20;98.10;;;;;;5031679;28;20064;-65
2022/07/26 09:36:12;;;;;;;18.65;4.03;;;;;;;;;;5048190;28;20022;-66
2022/07/26 09:38:44;;;;;;;16.52;4.18;;;30.80;89.80;;;;;;5051973;28;20383;-64
2022/07/26 09:41:23;;;;;;;21.65;5.70;;;31.20;86.30;;;;;;5047691;28;20360;-65
2022/07/26 09:43:50;;;;;;;18.98;4.20;;;31.80;99.90;;;;;;5049216;28;20087;-63
2022/07/26 09:46:17;;;;;;;17.40;4.22;;;31.50;85.20;;;;;;5048360;28;20032;-67
2022/07/26 09:48:44;;;;;;;18.92;3.97;;;32.10;99.90;;;;;;5047189;28;20028;-68
2022/07/26 09:51:10;;;;;;;15.90;4.32;;;;;;;;;;5048020;28;20025;-67
2022/07/26 09:53:48;;;;;;;19.00;4.93;;;31.80;86.50;;;;;;5048819;28;20033;-68
2022/07/26 09:56:14;;;;;;;13.80;4.32;;;;;;;;;;5048780;28;20047;-69
2022/07/26 09:58:41;;;;;;;16.40;4.20;;;;;;;;;;5048353;28;20059;-68
2022/07/26 10:01:07;;;;;;;15.32;4.32;;;31.90;85.00;;;;;;5047985;28;20098;-67
2022/07/26 10:03:34;;;;;;;18.40;4.18;;;31.70;99.90;;;;;;5047312;28;20029;-67
2022/07/26 10:06:02;;;;;;;13.52;3.97;;;31.90;84.10;;;;;;5047522;28;20024;-68
2022/07/26 10:08:30;;;;;;;21.13;4.38;;;31.70;84.10;;;;;;5049168;28;20462;-66
2022/07/26 10:11:07;;;;;;;14.30;4.15;;;31.80;84.30;;;;;;5047882;28;20033;-68
2022/07/26 10:13:34;;;;;;;17.38;3.83;;;;;;;;;;5043616;28;20062;-68
2022/07/26 10:16:00;;;;;;;14.68;3.58;;;;;;;;;;5052718;28;20025;-70
2022/07/26 10:18:36;;;;;;;15.98;4.22;;;31.80;99.90;;;;;;5047158;28;20433;-69
2022/07/26 10:21:15;;;;;;;18.00;3.80;;;;;;;;;;5047206;28;20036;-69
2022/07/26 10:23:49;;;;;;;16.67;4.47;;;31.60;97.20;;;;;;5048886;28;20451;-69
2022/07/26 10:26:34;;;;;;;13.52;3.85;;;;;;;;;;5048663;28;20091;-68
2022/07/26 10:29:24;;;;;;;16.25;4.50;;;31.50;84.20;;;;;;5047599;28;20076;-68
2022/07/26 10:32:02;;;;;;;16.13;4.15;;;31.50;99.90;;;;;;5047678;28;20047;-68
2022/07/26 10:34:38;;;;;;;20.00;4.00;;;31.50;92.00;;;;;;5045787;28;20084;-68
2022/07/26 10:37:06;;;;;;;17.80;3.60;;;;;;;;;;5047740;28;20023;-67
2022/07/26 10:39:33;;;;;;;23.80;3.92;;;31.50;99.90;;;;;;5047298;28;20021;-68
2022/07/26 10:42:05;;;;;;;19.45;4.50;;;31.20;85.80;;;;;;5046507;28;20167;-67
2022/07/26 10:44:33;;;;;;;12.55;3.90;;;;;;;;;;5051823;28;20106;-66
2022/07/26 10:47:01;;;;;;;17.42;4.32;;;;;;;;;;5047864;28;20146;-68
2022/07/26 10:49:32;;;;;;;19.08;3.85;;;;;;;;;;5045861;28;20471;-67
2022/07/26 10:52:12;;;;;;;18.83;4.20;;;;;;;;;;5046987;28;20075;-67
2022/07/26 10:54:57;;;;;;;19.02;4.35;;;;;;;;;;5046468;28;20045;-68
2022/07/26 10:57:24;;;;;;;17.48;3.45;;;31.50;93.70;;;;;;5046962;28;20495;-67
2022/07/26 10:59:51;;;;;;;13.73;3.63;;;31.30;99.90;;;;;;5046558;28;20482;-69
2022/07/26 11:02:22;;;;;;;18.77;3.90;;;31.00;99.90;;;;;;5046532;28;20074;-69
2022/07/26 11:04:49;;;;;;;16.00;3.83;;;31.70;90.20;;;;;;5046655;28;20542;-68
2022/07/26 11:07:16;;;;;;;12.70;3.85;;;30.80;87.20;;;;;;5029573;28;20036;-69
2022/07/26 11:09:42;;;;;;;19.92;4.80;;;31.40;99.90;;;;;;5047592;28;20067;-67
2022/07/26 11:12:18;;;;;;;18.98;4.38;;;31.10;85.60;;;;;;5047018;28;20021;-68
2022/07/26 11:14:44;;;;;;;;;;;30.90;99.90;;;;;;5045236;28;20033;-67
2022/07/26 11:17:31;;;;;;;16.80;3.47;;;31.00;93.80;;;;;;5030453;28;19923;-68
2022/07/26 11:19:58;;;;;;;15.38;3.90;;;;;;;;;;5046393;28;20892;-67
2022/07/26 11:22:31;;;;;;;25.52;4.55;;;30.70;91.90;;;;;;5047306;28;20029;-69
2022/07/26 11:24:58;;;;;;;15.68;3.85;;;30.70;99.90;;;;;;5030585;28;20025;-69
2022/07/26 11:27:24;;;;;;;19.20;4.00;;;31.20;99.90;;;;;;5046385;28;20371;-67
2022/07/26 11:29:50;;;;;;;18.90;4.68;;;30.50;91.80;;;;;;5046654;28;20025;-68
2022/07/26 11:32:24;;;;;;;14.00;3.40;;;30.60;99.90;;;;;;5047257;28;20041;-67
2022/07/26 11:35:01;;;;;;;14.98;3.58;;;30.50;85.40;;;;;;5046940;28;20040;-68
2022/07/26 11:37:28;;;;;;;14.07;4.05;;;30.50;99.90;;;;;;5047002;28;20025;-68
2022/07/26 11:39:55;;;;;;;17.10;4.65;;;;;;;;;;5047478;28;20017;-68
2022/07/26 11:42:21;;;;;;;18.27;4.57;;;;;;;;;;5046535;28;20068;-67
2022/07/26 11:44:49;;;;;;;14.45;4.15;;;30.70;99.90;;;;;;5046428;28;20053;-68
2022/07/26 11:47:21;;;;;;;17.75;4.35;;;30.60;99.90;;;;;;5046633;28;20061;-68
2022/07/26 11:49:48;;;;;;;12.00;3.50;;;30.60;84.80;;;;;;5045875;28;20017;-68
2022/07/26 11:52:15;;;;;;;17.70;3.67;;;;;;;;;;5045386;28;20471;-67
2022/07/26 11:54:48;;;;;;;21.20;4.72;;;30.70;99.90;;;;;;5049686;28;20101;-68
2022/07/26 11:57:15;;;;;;;14.75;3.90;;;30.40;85.20;;;;;;5049580;28;20117;-68
2022/07/26 11:59:44;;;;;;;16.58;3.92;;;30.50;99.90;;;;;;5049669;28;20047;-67
2022/07/26 12:02:11;;;;;;;13.77;3.40;;;30.60;84.40;;;;;;5050596;28;20029;-66
2022/07/26 12:04:40;;;;;;;16.73;3.95;;;30.80;99.90;;;;;;5050174;28;20051;-67
2022/07/26 12:07:11;;;;;;;16.75;3.70;;;30.70;83.70;;;;;;5051845;28;20032;-69
2022/07/26 12:09:45;;;;;;;16.20;4.18;;;30.80;99.90;;;;;;5049984;28;20057;-68
2022/07/26 12:12:24;;;;;;;21.77;4.30;;;30.70;83.20;;;;;;5050862;28;20472;-69
2022/07/26 12:15:00;;;;;;;17.25;3.90;;;30.60;99.90;;;;;;5045756;28;20089;-68
2022/07/26 12:17:27;;;;;;;19.33;3.97;;;30.60;99.90;;;;;;5051511;28;20120;-68
2022/07/26 12:19:54;;;;;;;11.70;3.72;;;;;;;;;;5050045;28;20029;-68
2022/07/26 12:22:22;;;;;;;15.85;3.63;;;30.80;91.50;;;;;;5050210;28;20083;-68
2022/07/26 12:25:00;;;;;;;14.75;3.75;;;30.60;99.90;;;;;;5050618;28;20410;-68
2022/07/26 12:27:32;;;;;;;10.90;3.50;;;30.50;89.30;;;;;;5048812;28;20116;-68
2022/07/26 12:30:01;;;;;;;14.18;4.22;;;;;;;;;;5052525;28;20055;-68
2022/07/26 12:32:34;;;;;;;23.98;4.25;;;30.10;93.50;;;;;;5050495;28;20048;-67
2022/07/26 12:35:06;;;;;;;16.65;4.10;;;30.50;99.90;;;;;;5049489;28;20086;-68
2022/07/26 12:37:35;;;;;;;14.60;3.78;;;;;;;;;;5033936;28;20482;-67
2022/07/26 12:40:23;;;;;;;15.18;3.92;;;30.40;99.90;;;;;;5050094;28;20032;-68
2022/07/26 12:42:50;;;;;;;18.02;4.07;;;;;;;;;;5049745;28;20125;-66
2022/07/26 12:45:21;;;;;;;15.63;4.25;;;30.30;83.80;;;;;;5050068;28;20043;-67
2022/07/26 12:47:49;;;;;;;11.52;3.75;;;;;;;;;;5050516;28;20029;-69
2022/07/26 12:50:16;;;;;;;12.63;4.07;;;;;;;;;;5050545;28;20052;-67
2022/07/26 12:52:43;;;;;;;18.38;4.38;;;31.20;84.80;;;;;;5049532;28;20037;-69
2022/07/26 12:55:16;;;;;;;18.02;4.53;;;30.30;92.60;;;;;;5051263;28;20136;-66
2022/07/26 12:57:44;;;;;;;15.18;4.63;;;30.50;99.90;;;;;;5032927;28;20386;-68
2022/07/26 13:00:13;;;;;;;21.10;4.80;;;30.20;99.90;;;;;;5032611;28;20027;-68
2022/07/26 13:02:42;;;;;;;12.38;4.28;;;30.40;99.90;;;;;;5032987;28;20036;-67
2022/07/26 13:05:09;;;;;;;15.13;4.13;;;30.20;87.90;;;;;;5048679;28;20082;-68